Latest Coastal Weather Observations for Port Lincoln Airport

IDS60701

Issued at 4:51 pm CST Saturday 30 July 2016 (issued every 10 minutes, with the page automatically refreshed every 10 minutes)

About coastal observations | Map of coastal stations | Coastal observations for SA | Marine services | Other Formats
Station Details ID: 018192 Name: PORT LINCOLN AWS Lat: -34.60 Lon: 135.88 Height: 8.5 m
Data from the previous 72 hours. | See also: Recent months at Port Lincoln Airport
Date/Time
CST
Temp
°C
Wind Pressure Rain since
9am
mm
Weather Cloud Vis
km
Sea
Height
m
Swell
Dir  Spd
kts
Gust
kts
hPa Trend Height
m
Period
s
Dir
30/04:30pm 14.8 NW 12 15 1012.9 - 0.4 - Partly cloudy 10 - - - -
30/04:00pm 14.9 NW 15 20 1012.6 - 0.4 - Partly cloudy 10 - - - -
30/03:30pm 14.4 NW 16 21 1012.1 - 0.4 - Cloudy 10 - - - -
30/03:00pm 15.9 NW 16 23 1012.3 - 0.0 - Cloudy 10 - - - -
30/02:30pm 17.1 NW 16 21 1012.0 - 0.0 - Partly cloudy 10 - - - -
30/02:00pm 17.4 NW 15 20 1012.2 - 0.0 - Partly cloudy 10 - - - -
30/01:30pm 17.3 NNW 17 26 1012.4 - 0.0 - Partly cloudy 10 - - - -
30/01:00pm 18.0 NW 22 29 1012.4 - 0.0 - Partly cloudy 10 - - - -
30/12:30pm 17.6 NW 22 31 1012.4 - 0.0 - Partly cloudy 10 - - - -
30/12:22pm 18.3 NNW 21 31 1012.2 - 0.0 - Partly cloudy 10 - - - -
30/12:00pm 18.3 NNW 21 28 1012.7 - 0.0 - Partly cloudy 10 - - - -
30/11:31am 16.8 NNW 19 29 1012.5 - 0.0 - Partly cloudy 10 - - - -
30/11:30am 16.7 NNW 20 29 1012.5 - 0.0 - Partly cloudy 10 - - - -
30/11:00am 15.4 NNW 20 28 1013.9 - 0.0 - Partly cloudy 10 - - - -
30/10:32am 15.7 NNW 20 30 1013.9 - 0.0 - Partly cloudy 10 - - - -
30/10:30am 15.6 NNW 20 28 1013.9 - 0.0 - Partly cloudy 10 - - - -
30/10:00am 15.1 NNW 19 26 1013.9 - 0.0 - Partly cloudy 10 - - - -
30/09:30am 14.6 NNW 21 26 1014.0 - 0.0 - - 10 - - - -
30/09:00am 14.8 NNW 18 25 1014.2 - 0.0 - Cloudy 10 - - - -
30/08:30am 14.4 NNW 19 26 1014.4 - 0.0 - - 10 - - - -
30/08:00am 14.5 NNW 17 24 1014.7 - 0.0 - - 10 - - - -
30/07:30am 14.5 NNW 17 24 1014.7 - 0.0 - - 10 - - - -
30/07:00am 14.3 NNW 16 22 1014.8 - 0.0 - - 10 - - - -
30/06:30am 14.3 NNW 14 21 1015.2 - 0.0 - - 10 - - - -
30/06:00am 14.5 NNW 15 23 1015.2 - 0.0 - Cloudy 10 - - - -
30/05:30am 14.0 NNW 14 21 1015.3 - 0.0 - - 10 - - - -
30/05:00am 13.6 NNW 13 17 1015.7 - 0.0 - - 10 - - - -
30/04:30am 13.4 NNW 13 18 1015.9 - 0.0 - - 10 - - - -
30/04:00am 13.6 NNW 15 20 1016.4 - 0.0 - - 10 - - - -
30/03:30am 13.9 NNW 13 19 1016.5 - 0.0 - - 10 - - - -
30/03:00am 12.9 NNE 7 11 1017.0 - 0.0 - Cloudy 10 - - - -
30/02:30am 11.8 NNE 5 9 1017.4 - 0.0 - - 10 - - - -
30/02:00am 10.8 N 4 6 1017.9 - 0.0 - - 10 - - - -
30/01:30am 9.5 N 4 5 1018.3 - 0.0 - - 10 - - - -
30/01:00am 10.0 N 4 5 1018.7 - 0.0 - - 10 - - - -
30/12:30am 10.2 N 5 8 1019.3 - 0.0 - - 10 - - - -
30/12:00am 9.9 N 4 5 1019.7 - 0.0 - Cloudy 10 - - - -
 
Date/Time
CST
Temp
°C
Wind Pressure Rain since
9am
mm
Weather Cloud Vis
km
Sea
Height
m
Swell
Dir  Spd
kts
Gust
kts
hPa Trend Height
m
Period
s
Dir
29/11:30pm 9.6 NNW 4 5 1020.1 - 0.0 - - 10 - - - -
29/11:00pm 9.2 NW 4 6 1020.6 - 0.0 - - 10 - - - -
29/10:30pm 8.9 NNW 4 5 1020.9 - 0.0 - - 10 - - - -
29/10:00pm 8.3 NW 4 5 1021.3 - 0.0 - - 10 - - - -
29/09:30pm 8.4 WNW 4 5 1021.4 - 0.0 - - 10 - - - -
29/09:00pm 9.1 CALM 0 0 1021.4 - 0.0 - Cloudy 10 - - - -
29/08:30pm 8.9 CALM 0 0 1021.5 - 0.0 - - 10 - - - -
29/08:00pm 8.8 N 3 4 1021.5 - 0.0 - - 10 - - - -
29/07:30pm 9.6 NNE 4 5 1021.4 - 0.0 - - 10 - - - -
29/07:00pm 10.2 CALM 0 0 1021.7 - 0.0 - - 10 - - - -
29/06:30pm 10.8 CALM 0 0 1021.6 - 0.0 - - 10 - - - -
29/06:00pm 11.5 NE 2 4 1021.5 - 0.0 - Partly cloudy 10 - - - -
29/05:30pm 12.7 NE 4 5 1021.2 - 0.0 - - 10 - - - -
29/05:00pm 13.5 NE 7 8 1021.2 - 0.0 - - 10 - - - -
29/04:30pm 13.7 ENE 7 9 1021.2 - 0.0 - - 10 - - - -
29/04:00pm 14.0 ENE 7 8 1021.3 - 0.0 - - 10 - - - -
29/03:30pm 14.2 ENE 6 8 1021.5 - 0.0 - - 10 - - - -
29/03:00pm 14.5 NE 6 8 1021.7 - 0.0 - - 10 - - - -
29/02:30pm 14.5 ENE 8 10 1022.0 - 0.0 - - 10 - - - -
29/02:00pm 14.2 ENE 8 9 1022.3 - 0.0 - - 10 - - - -
29/01:30pm 14.3 ENE 7 9 1022.7 - 0.0 - - 10 - - - -
29/01:00pm 14.4 ENE 5 8 1023.1 - 0.0 - - 10 - - - -
29/12:30pm 14.0 ENE 6 9 1023.6 - 0.0 - - 10 - - - -
29/12:00pm 13.8 SSE 8 9 1023.9 - 0.0 - - 10 - - - -
29/11:30am 14.7 ENE 5 7 1024.1 - 0.0 - - 10 - - - -
29/11:00am 14.8 N 4 6 1024.6 - 0.0 - - 10 - - - -
29/10:30am 13.8 N 2 4 1024.7 - 0.0 - - 10 - - - -
29/10:00am 12.2 NE 1 5 1024.9 - 0.0 - - 10 - - - -
29/09:30am 11.2 N 2 4 1024.8 - 0.0 - - 10 - - - -
29/09:00am 10.6 N 4 6 1024.4 - 0.0 - Cloudy 10 - - - -
29/08:30am 9.1 W 3 3 1024.7 - 0.0 - - 10 - - - -
29/08:00am 9.0 S 3 5 1024.6 - 0.0 - - 10 - - - -
29/07:30am 8.5 N 1 4 1024.1 - 0.0 - - 10 - - - -
29/07:00am 8.0 NNW 2 6 1024.1 - 0.0 - - 10 - - - -
29/06:30am 8.2 NW 3 5 1024.4 - 0.0 - - 10 - - - -
29/06:00am 9.1 N 8 11 1024.0 - 0.0 - Cloudy 10 - - - -
29/05:30am 9.0 NNW 9 13 1024.0 - 0.0 - Partly cloudy 10 - - - -
29/05:00am 8.9 NW 6 8 1024.8 - 0.0 - Cloudy 10 - - - -
29/04:30am 9.0 N 6 7 1024.7 - 0.0 - Cloudy 10 - - - -
29/04:00am 9.1 NW 5 6 1025.1 - 0.0 - Cloudy 10 - - - -
29/03:30am 9.2 NNW 5 6 1024.8 - 0.0 - Cloudy 10 - - - -
29/03:00am 9.7 N 5 6 1024.9 - 0.0 - Cloudy 10 - - - -
29/02:30am 10.0 NW 3 4 1025.0 - 0.0 - Cloudy 10 - - - -
29/02:00am 10.5 N 5 6 1025.0 - 0.0 - Cloudy 10 - - - -
29/01:30am 10.8 N 4 5 1025.4 - 0.0 - Cloudy 10 - - - -
29/01:00am 11.0 NNW 3 5 1025.5 - 0.0 - Cloudy 10 - - - -
29/12:30am 11.1 N 3 5 1025.7 - 0.0 - Cloudy 10 - - - -
29/12:00am 11.3 NW 3 5 1026.1 - 0.0 - Cloudy 10 - - - -
 
Date/Time
CST
Temp
°C
Wind Pressure Rain since
9am
mm
Weather Cloud Vis
km
Sea
Height
m
Swell
Dir  Spd
kts
Gust
kts
hPa Trend Height
m
Period
s
Dir
28/11:30pm 11.2 N 4 5 1026.1 - 0.0 - Cloudy 10 - - - -
28/11:00pm 11.2 N 4 5 1026.3 - 0.0 - Cloudy 10 - - - -
28/10:30pm 11.2 NNW 3 6 1026.5 - 0.0 - Cloudy 10 - - - -
28/10:00pm 11.1 N 5 8 1026.6 - 0.0 - Cloudy 10 - - - -
28/09:30pm 11.2 NNW 6 8 1026.6 - 0.0 - Cloudy 10 - - - -
28/09:00pm 11.2 N 5 6 1027.0 - 0.0 - Cloudy 10 - - - -
28/08:30pm 11.2 N 3 4 1026.9 - 0.0 - Cloudy 10 - - - -
28/08:00pm 10.9 N 3 5 1026.9 - 0.0 - Cloudy 10 - - - -
28/07:30pm 10.8 NNW 4 5 1027.1 - 0.0 - Cloudy 10 - - - -
28/07:00pm 11.0 N 5 6 1027.1 - 0.0 - Cloudy 10 - - - -
28/06:30pm 11.0 NW 5 6 1027.2 - 0.0 - Partly cloudy 10 - - - -
28/06:17pm 11.6 WNW 5 7 1027.1 - 0.0 - Partly cloudy 5 - - - -
28/06:00pm 12.1 W 7 9 1027.1 - 0.0 - Cloudy 10 - - - -
28/05:30pm 12.5 W 8 11 1027.0 - 0.0 - Cloudy 10 - - - -
28/05:00pm 12.7 W 9 13 1026.9 - 0.0 - Cloudy 10 - - - -
28/04:30pm 12.6 WNW 7 11 1026.8 - 0.0 - Partly cloudy 10 - - - -
28/04:00pm 13.3 WNW 10 13 1026.8 - 0.0 - Cloudy 10 - - - -
28/03:30pm 13.3 WNW 9 12 1026.8 - 0.0 - Cloudy 10 - - - -
28/03:00pm 13.9 WNW 12 16 1027.0 - 0.0 - Cloudy 10 - - - -
28/02:30pm 13.9 NW 11 17 1026.9 - 0.0 - Cloudy 10 - - - -
28/02:00pm 14.0 WNW 10 13 1027.1 - 0.0 - Cloudy 10 - - - -
28/01:30pm 13.9 NW 11 18 1027.4 - 0.0 - Cloudy 10 - - - -
28/01:00pm 13.8 WNW 11 16 1027.8 - 0.0 - Cloudy 10 - - - -
28/12:30pm 13.8 NW 11 16 1028.1 - 0.0 - Cloudy 10 - - - -
28/12:00pm 13.5 NW 10 15 1028.5 - 0.0 - Cloudy 10 - - - -
28/11:30am 13.5 NW 10 13 1028.7 - 0.0 - Cloudy 10 - - - -
28/11:00am 13.5 NW 10 15 1029.1 - 0.0 - Cloudy 10 - - - -
28/10:30am 13.0 NNW 7 9 1029.4 - 0.0 - Cloudy 10 - - - -
28/10:00am 13.0 NNW 7 9 1029.7 - 0.0 - Cloudy 10 - - - -
28/09:30am 12.8 WNW 7 10 1029.7 - 0.0 - Cloudy 10 - - - -
28/09:00am 12.5 WNW 8 10 1029.3 - 0.0 - Mostly cloudy 10 - - - -
28/08:30am 11.8 NW 6 8 1029.1 - 0.0 - Cloudy 10 - - - -
28/08:00am 11.4 NW 5 6 1029.0 - 0.0 - Cloudy 10 - - - -
28/07:30am 11.1 WNW 5 7 1028.9 - 0.0 - Cloudy 10 - - - -
28/07:00am 10.9 WNW 5 6 1028.6 - 0.0 - Cloudy 10 - - - -
28/06:30am 11.2 WNW 5 7 1028.2 - 0.0 - Cloudy 10 - - - -
28/06:00am 11.1 WNW 4 6 1027.9 - 0.0 - Cloudy 10 - - - -
28/05:30am 11.2 W 4 5 1027.8 - 0.0 - Cloudy 10 - - - -
28/05:00am 11.1 WSW 4 6 1027.6 - 0.0 - Cloudy 10 - - - -
28/04:30am 11.2 W 4 5 1027.6 - 0.0 - Cloudy 10 - - - -
28/04:00am 11.4 WNW 5 6 1027.7 - 0.0 - Cloudy 10 - - - -
28/03:30am 11.5 NW 5 8 1027.6 - 0.0 - Cloudy 10 - - - -
28/03:00am 11.2 WSW 4 5 1027.7 - 0.0 - Cloudy 10 - - - -
28/02:30am 11.2 SSW 4 6 1027.9 - 0.0 - Partly cloudy 10 - - - -
28/02:00am 10.9 WNW 5 6 1028.0 - 0.0 - Cloudy 10 - - - -
28/01:30am 10.8 NNW 6 7 1028.0 - 0.0 - Cloudy 10 - - - -
28/01:00am 10.7 NNW 5 6 1027.9 - 0.0 - Cloudy 10 - - - -
28/12:30am 11.2 WNW 7 8 1027.8 - 0.0 - Cloudy 10 - - - -
28/12:00am 10.3 NW 6 6 1027.9 - 0.0 - Cloudy 10 - - - -
 
Date/Time
CST
Temp
°C
Wind Pressure Rain since
9am
mm
Weather Cloud Vis
km
Sea
Height
m
Swell
Dir  Spd
kts
Gust
kts
hPa Trend Height
m
Period
s
Dir
27/11:30pm 10.0 NNW 5 7 1027.8 - 0.0 - Cloudy 10 - - - -
27/11:00pm 10.0 NW 5 6 1027.9 - 0.0 - Cloudy 10 - - - -
27/10:30pm 9.8 W 5 6 1028.2 - 0.0 - Cloudy 10 - - - -
27/10:00pm 10.2 WNW 6 7 1028.2 - 0.0 - Partly cloudy 10 - - - -
27/09:30pm 9.6 NW 5 6 1028.2 - 0.0 - Partly cloudy 10 - - - -
27/09:00pm 10.6 NW 6 7 1028.3 - 0.0 - Cloudy 10 - - - -
27/08:30pm 10.7 NW 6 7 1028.2 - 0.0 - Cloudy 10 - - - -
27/08:00pm 11.0 WNW 7 9 1028.1 - 0.0 - Partly cloudy 10 - - - -
27/07:30pm 10.6 NW 6 7 1028.2 - 0.0 - Cloudy 10 - - - -
27/07:00pm 10.3 NW 6 7 1027.9 - 0.0 - Cloudy 10 - - - -
27/06:30pm 10.7 W 4 5 1027.7 - 0.0 - Cloudy 10 - - - -
27/06:00pm 10.7 WNW 5 6 1027.4 - 0.0 - Cloudy 10 - - - -
27/05:30pm 10.7 WNW 5 6 1027.1 - 0.0 - Partly cloudy 10 - - - -
27/05:00pm 11.9 WNW 7 10 1026.9 - 0.0 - Cloudy 10 - - - -

Other Formats:

Comma delimited format used in spreadsheet applications
http://www.bom.gov.au/fwo/IDS60701/IDS60701.95661.axf

JavaScript Object Notation format (JSON) in row-major order
http://www.bom.gov.au/fwo/IDS60701/IDS60701.95661.json